createdAt,value
2017-11-12T00:01:57.623Z,3.10
2017-11-12T00:04:24.759Z,3.00
2017-11-12T00:06:51.351Z,3.10
2017-11-12T00:09:18.129Z,3.10
2017-11-12T00:11:45.174Z,3.10
2017-11-12T00:14:12.988Z,3.10
2017-11-12T00:16:40.130Z,3.10
2017-11-12T00:19:06.855Z,3.20
2017-11-12T00:21:33.813Z,3.30
2017-11-12T00:24:00.496Z,3.20
2017-11-12T00:26:27.272Z,3.30
2017-11-12T00:28:54.160Z,3.20
2017-11-12T00:31:20.949Z,3.20
2017-11-12T00:33:47.790Z,3.10
2017-11-12T00:36:14.771Z,3.10
2017-11-12T00:38:41.576Z,3.10
2017-11-12T00:41:08.415Z,3.10
2017-11-12T00:43:36.133Z,3.10
2017-11-12T00:46:02.958Z,3.20
2017-11-12T00:48:30.446Z,3.20
2017-11-12T00:50:57.296Z,3.20
2017-11-12T00:53:24.002Z,3.20
2017-11-12T00:55:50.837Z,3.30
2017-11-12T00:58:17.653Z,3.30
2017-11-12T01:00:44.461Z,3.30
2017-11-12T01:03:11.991Z,3.30
2017-11-12T01:05:38.927Z,3.30
2017-11-12T01:08:05.770Z,3.30
2017-11-12T01:10:32.622Z,3.20
2017-11-12T01:12:59.485Z,3.20
2017-11-12T01:15:26.242Z,3.30
2017-11-12T01:17:53.044Z,3.30
2017-11-12T01:20:21.664Z,3.20
2017-11-12T01:22:48.629Z,3.20
2017-11-12T01:25:16.784Z,3.10
2017-11-12T01:27:43.950Z,3.10
2017-11-12T01:30:12.398Z,3.10
2017-11-12T01:32:39.207Z,3.00
2017-11-12T01:35:06.063Z,3.00
2017-11-12T01:37:33.023Z,3.00
2017-11-12T01:39:59.672Z,3.10
2017-11-12T01:42:26.595Z,3.10
2017-11-12T01:44:55.111Z,3.10
2017-11-12T01:47:21.973Z,3.10
2017-11-12T01:49:48.827Z,3.10
2017-11-12T01:52:15.483Z,3.10
2017-11-12T01:54:42.345Z,3.10
2017-11-12T01:57:09.368Z,3.00
2017-11-12T01:59:37.409Z,3.00
2017-11-12T02:02:04.414Z,3.00
2017-11-12T02:04:31.417Z,2.90
2017-11-12T02:06:58.325Z,2.90
2017-11-12T02:09:25.761Z,2.90
2017-11-12T02:11:52.577Z,2.80
2017-11-12T02:14:19.316Z,2.80
2017-11-12T02:16:46.214Z,2.80
2017-11-12T02:19:12.963Z,2.80
2017-11-12T02:21:39.816Z,2.80
2017-11-12T02:24:06.431Z,2.70
2017-11-12T02:26:33.953Z,2.70
2017-11-12T02:29:00.540Z,2.70
2017-11-12T02:31:27.156Z,2.80
2017-11-12T02:33:53.770Z,2.70
2017-11-12T02:36:20.557Z,2.80
2017-11-12T02:38:47.462Z,2.80
2017-11-12T02:41:14.289Z,2.90
2017-11-12T02:43:41.044Z,2.90
2017-11-12T02:46:07.886Z,3.00
2017-11-12T02:48:34.813Z,3.00
2017-11-12T02:51:01.574Z,2.90
2017-11-12T02:53:28.414Z,2.90
2017-11-12T02:55:57.404Z,2.90
2017-11-12T02:58:24.271Z,2.90
2017-11-12T03:00:51.263Z,2.80
2017-11-12T03:03:18.490Z,2.90
2017-11-12T03:05:45.214Z,2.90
2017-11-12T03:08:12.113Z,2.90
2017-11-12T03:10:39.662Z,2.80
2017-11-12T03:13:06.374Z,2.80
2017-11-12T03:15:33.826Z,2.90
2017-11-12T03:18:00.866Z,3.00
2017-11-12T03:20:28.367Z,3.00
2017-11-12T03:22:54.975Z,3.00
2017-11-12T03:25:21.681Z,2.90
2017-11-12T03:27:48.568Z,2.90
2017-11-12T03:30:15.447Z,2.80
2017-11-12T03:32:42.196Z,2.80
2017-11-12T03:35:08.907Z,2.80
2017-11-12T03:37:35.682Z,2.80
2017-11-12T03:40:02.558Z,2.80
2017-11-12T03:42:29.248Z,2.80
2017-11-12T03:44:56.080Z,2.80
2017-11-12T03:47:23.506Z,2.80
2017-11-12T03:49:50.325Z,2.90
2017-11-12T03:52:17.283Z,2.90
2017-11-12T03:54:44.104Z,3.00
2017-11-12T03:57:11.354Z,3.00
2017-11-12T03:59:39.065Z,3.00
2017-11-12T04:02:06.020Z,3.10
2017-11-12T04:04:32.903Z,3.00
2017-11-12T04:06:59.603Z,3.00
2017-11-12T04:09:26.340Z,3.10
2017-11-12T04:11:53.045Z,3.00
2017-11-12T04:14:19.796Z,3.00
2017-11-12T04:16:46.539Z,3.00
2017-11-12T04:19:13.552Z,3.10
2017-11-12T04:21:41.444Z,3.00
2017-11-12T04:24:08.282Z,3.00
2017-11-12T04:26:35.400Z,3.10
2017-11-12T04:29:02.137Z,3.10
2017-11-12T04:31:29.326Z,3.10
2017-11-12T04:33:56.344Z,3.10
2017-11-12T04:36:23.803Z,3.20
2017-11-12T04:38:51.401Z,3.20
2017-11-12T04:41:18.353Z,3.10
2017-11-12T04:43:45.558Z,3.20
2017-11-12T04:46:12.520Z,3.30
2017-11-12T04:48:39.150Z,3.30
2017-11-12T04:51:06.130Z,3.30
2017-11-12T04:53:34.039Z,3.30
2017-11-12T04:56:00.808Z,3.30
2017-11-12T04:58:27.638Z,3.30
2017-11-12T05:00:55.045Z,3.40
2017-11-12T05:03:22.589Z,3.40
2017-11-12T05:05:49.369Z,3.30
2017-11-12T05:08:17.003Z,3.40
2017-11-12T05:10:43.863Z,3.30
2017-11-12T05:13:10.551Z,3.50
2017-11-12T05:15:37.595Z,3.50
2017-11-12T05:18:04.445Z,3.50
2017-11-12T05:20:31.253Z,3.50
2017-11-12T05:25:31.532Z,3.50
2017-11-12T05:27:58.328Z,3.60
2017-11-12T05:30:25.151Z,3.60
2017-11-12T05:32:52.065Z,3.70
2017-11-12T05:35:18.810Z,3.60
2017-11-12T05:37:45.629Z,3.60
2017-11-12T05:40:13.565Z,3.60
2017-11-12T05:42:40.827Z,3.60
2017-11-12T05:45:07.648Z,3.70
2017-11-12T05:47:34.446Z,3.60
2017-11-12T05:50:02.064Z,3.60
2017-11-12T05:52:28.937Z,3.70
2017-11-12T05:54:55.802Z,3.70
2017-11-12T05:57:22.946Z,3.70
2017-11-12T05:59:49.886Z,3.60
2017-11-12T06:02:16.885Z,3.60
2017-11-12T06:04:44.101Z,3.60
2017-11-12T06:07:11.220Z,3.50
2017-11-12T06:09:37.784Z,3.50
2017-11-12T06:12:04.830Z,3.50
2017-11-12T06:14:32.012Z,3.40
2017-11-12T06:16:58.753Z,3.40
2017-11-12T06:19:25.606Z,3.30
2017-11-12T06:21:52.569Z,3.30
2017-11-12T06:24:20.559Z,3.30
2017-11-12T06:26:47.497Z,3.30
2017-11-12T06:29:14.679Z,3.30
2017-11-12T06:31:41.466Z,3.40
2017-11-12T06:34:08.321Z,3.40
2017-11-12T06:36:40.925Z,3.50
2017-11-12T06:39:07.751Z,3.60
2017-11-12T06:41:34.979Z,3.60
2017-11-12T06:44:02.365Z,3.70
2017-11-12T06:46:30.034Z,3.70
2017-11-12T06:48:58.121Z,3.70
2017-11-12T06:51:25.330Z,3.70
2017-11-12T06:53:53.335Z,3.80
2017-11-12T06:56:20.501Z,3.80
2017-11-12T06:58:47.235Z,3.80
2017-11-12T07:01:14.171Z,3.80
2017-11-12T07:03:40.861Z,3.80
2017-11-12T07:06:07.701Z,3.80
2017-11-12T07:08:34.511Z,3.90
2017-11-12T07:11:01.303Z,3.80
2017-11-12T07:13:28.084Z,3.90
2017-11-12T07:15:54.838Z,4.00
2017-11-12T07:18:21.508Z,4.00
2017-11-12T07:20:48.248Z,4.10
2017-11-12T07:23:14.900Z,4.20
2017-11-12T07:25:42.458Z,4.20
2017-11-12T07:28:09.342Z,4.20
2017-11-12T07:30:36.046Z,4.30
2017-11-12T07:33:03.771Z,4.20
2017-11-12T07:35:30.572Z,4.20
2017-11-12T07:37:57.430Z,4.10
2017-11-12T07:40:24.400Z,4.00
2017-11-12T07:42:51.257Z,4.00
2017-11-12T07:45:18.329Z,4.10
2017-11-12T07:47:45.136Z,4.20
2017-11-12T07:50:11.926Z,4.20
2017-11-12T07:52:38.843Z,4.20
2017-11-12T07:55:05.752Z,4.20
2017-11-12T07:57:33.778Z,4.30
2017-11-12T08:00:00.661Z,4.40
2017-11-12T08:02:29.529Z,4.50
2017-11-12T08:04:57.372Z,4.60
2017-11-12T08:07:24.554Z,4.60
2017-11-12T08:09:52.070Z,4.70
2017-11-12T08:12:18.804Z,4.70
2017-11-12T08:14:45.487Z,4.70
2017-11-12T08:17:12.143Z,4.70
2017-11-12T08:19:38.725Z,4.70
2017-11-12T08:22:05.545Z,4.80
2017-11-12T08:24:33.127Z,4.80
2017-11-12T08:27:00.735Z,4.90
2017-11-12T08:29:27.736Z,4.80
2017-11-12T08:31:54.421Z,5.00
2017-11-12T08:34:21.415Z,5.10
2017-11-12T08:36:48.783Z,5.20
2017-11-12T08:39:15.657Z,5.10
2017-11-12T08:41:42.517Z,5.20
2017-11-12T08:44:12.945Z,5.10
2017-11-12T08:46:40.769Z,4.90
2017-11-12T08:49:08.001Z,4.90
2017-11-12T08:51:35.624Z,4.80
2017-11-12T08:54:03.361Z,4.80
2017-11-12T08:56:30.077Z,4.80
2017-11-12T08:58:57.095Z,4.80
2017-11-12T09:01:23.931Z,4.80
2017-11-12T09:03:51.002Z,4.80
2017-11-12T09:06:17.922Z,4.80
2017-11-12T09:08:44.847Z,4.90
2017-11-12T09:11:11.776Z,5.00
2017-11-12T09:13:38.566Z,5.20
2017-11-12T09:16:05.898Z,5.30
2017-11-12T09:21:10.429Z,5.60
2017-11-12T09:23:39.757Z,5.70
2017-11-12T09:26:06.569Z,5.60
2017-11-12T09:28:33.190Z,5.70
2017-11-12T09:31:00.075Z,5.90
2017-11-12T09:33:27.163Z,6.10
2017-11-12T09:35:54.719Z,6.10
2017-11-12T09:38:22.392Z,6.00
2017-11-12T09:40:49.058Z,5.90
2017-11-12T09:43:16.517Z,6.20
2017-11-12T09:45:44.686Z,6.30
2017-11-12T09:48:12.276Z,6.10
2017-11-12T09:50:39.050Z,6.10
2017-11-12T09:53:05.656Z,6.20
2017-11-12T09:55:32.669Z,6.30
2017-11-12T09:57:59.832Z,6.50
2017-11-12T10:00:27.489Z,6.50
2017-11-12T10:02:54.451Z,6.50
2017-11-12T10:05:21.126Z,6.50
2017-11-12T10:07:48.266Z,6.50
2017-11-12T10:10:16.505Z,6.50
2017-11-12T10:12:44.126Z,6.50
2017-11-12T10:15:11.249Z,6.40
2017-11-12T10:17:38.528Z,6.40
2017-11-12T10:20:05.587Z,6.30
2017-11-12T10:22:32.730Z,6.40
2017-11-12T10:24:59.971Z,6.40
2017-11-12T10:27:26.863Z,6.50
2017-11-12T10:29:54.434Z,6.60
2017-11-12T10:32:21.246Z,6.60
2017-11-12T10:34:49.425Z,6.40
2017-11-12T10:37:17.190Z,6.20
2017-11-12T10:39:44.204Z,6.20
2017-11-12T10:42:11.249Z,6.20
2017-11-12T10:44:38.296Z,6.10
2017-11-12T10:47:05.446Z,6.00
2017-11-12T10:49:32.954Z,6.10
2017-11-12T10:51:59.670Z,6.10
2017-11-12T10:54:26.421Z,6.10
2017-11-12T10:56:53.252Z,6.10
2017-11-12T10:59:20.037Z,6.10
2017-11-12T11:01:46.849Z,6.10
2017-11-12T11:04:14.479Z,6.30
2017-11-12T11:06:43.909Z,6.30
2017-11-12T11:09:11.562Z,6.20
2017-11-12T11:11:40.086Z,6.20
2017-11-12T11:14:07.715Z,6.30
2017-11-12T11:16:34.585Z,6.30
2017-11-12T11:19:01.687Z,6.50
2017-11-12T11:21:28.487Z,6.60
2017-11-12T11:23:55.844Z,6.60
2017-11-12T11:26:22.685Z,6.60
2017-11-12T11:28:49.696Z,6.70
2017-11-12T11:31:16.650Z,6.90
2017-11-12T11:33:51.112Z,6.90
2017-11-12T11:36:18.151Z,6.90
2017-11-12T11:38:49.277Z,6.90
2017-11-12T11:41:16.887Z,6.90
2017-11-12T11:43:43.750Z,6.90
2017-11-12T11:46:10.597Z,6.90
2017-11-12T11:48:37.744Z,7.20
2017-11-12T11:51:04.753Z,7.40
2017-11-12T11:53:31.617Z,7.40
2017-11-12T11:55:59.895Z,7.50
2017-11-12T11:58:27.030Z,7.60
2017-11-12T12:00:54.784Z,8.10
2017-11-12T12:03:21.949Z,8.10
2017-11-12T12:05:49.142Z,8.60
2017-11-12T12:08:17.152Z,10.00
2017-11-12T12:10:44.269Z,9.90
2017-11-12T12:13:12.366Z,9.50
2017-11-12T12:15:40.055Z,9.20
2017-11-12T12:18:07.471Z,9.00
2017-11-12T12:20:34.689Z,8.60
2017-11-12T12:23:02.252Z,8.50
2017-11-12T12:25:29.684Z,8.60
2017-11-12T12:27:57.494Z,8.70
2017-11-12T12:30:25.496Z,8.80
2017-11-12T12:32:52.536Z,8.30
2017-11-12T12:35:19.319Z,8.10
2017-11-12T12:37:47.251Z,8.00
2017-11-12T12:40:17.162Z,7.70
2017-11-12T12:42:44.528Z,7.60
2017-11-12T12:45:11.652Z,7.60
2017-11-12T12:47:38.575Z,7.50
2017-11-12T12:50:06.194Z,7.40
2017-11-12T12:52:32.949Z,7.60
2017-11-12T12:54:59.907Z,7.60
2017-11-12T12:57:28.511Z,7.50
2017-11-12T12:59:57.050Z,7.20
2017-11-12T13:02:24.029Z,7.20
2017-11-12T13:04:50.705Z,7.30
2017-11-12T13:07:17.656Z,7.30
2017-11-12T13:09:44.885Z,7.40
2017-11-12T13:12:12.213Z,7.30
2017-11-12T13:14:39.094Z,7.30
2017-11-12T13:17:06.040Z,7.10
2017-11-12T13:19:33.194Z,6.90
2017-11-12T13:22:00.582Z,6.90
2017-11-12T13:24:28.395Z,6.80
2017-11-12T13:26:55.482Z,6.70
2017-11-12T13:29:24.241Z,6.80
2017-11-12T13:31:52.314Z,6.80
2017-11-12T13:34:20.053Z,6.70
2017-11-12T13:36:47.435Z,6.70
2017-11-12T13:39:14.456Z,6.70
2017-11-12T13:41:41.448Z,6.80
2017-11-12T13:44:08.364Z,6.70
2017-11-12T13:46:35.396Z,6.70
2017-11-12T13:49:02.223Z,6.60
2017-11-12T13:51:29.142Z,6.60
2017-11-12T13:53:56.663Z,6.60
2017-11-12T13:56:23.310Z,6.60
2017-11-12T13:58:50.693Z,6.60
2017-11-12T14:01:19.603Z,6.50
2017-11-12T14:03:46.878Z,6.50
2017-11-12T14:06:14.747Z,6.40
2017-11-12T14:08:47.071Z,6.40
2017-11-12T14:11:14.200Z,6.40
2017-11-12T14:13:41.137Z,6.40
2017-11-12T14:16:08.603Z,6.40
2017-11-12T14:18:35.435Z,6.40
2017-11-12T14:21:02.361Z,6.40
2017-11-12T14:23:29.103Z,6.40
2017-11-12T14:25:56.078Z,6.40
2017-11-12T14:28:22.891Z,6.30
2017-11-12T14:30:50.663Z,6.20
2017-11-12T14:33:17.344Z,6.20
2017-11-12T14:35:44.093Z,6.20
2017-11-12T14:38:10.792Z,6.20
2017-11-12T14:40:37.522Z,6.10
2017-11-12T14:43:04.341Z,6.20
2017-11-12T14:45:31.108Z,6.20
2017-11-12T14:47:57.836Z,6.10
2017-11-12T14:50:24.569Z,6.10
2017-11-12T14:52:51.422Z,6.10
2017-11-12T14:55:17.974Z,6.00
2017-11-12T14:57:44.827Z,6.00
2017-11-12T15:00:11.632Z,6.00
2017-11-12T15:02:38.430Z,6.00
2017-11-12T15:05:05.111Z,6.00
2017-11-12T15:07:31.815Z,5.90
2017-11-12T15:09:58.704Z,5.90
2017-11-12T15:12:28.768Z,5.80
2017-11-12T15:14:55.872Z,5.80
2017-11-12T15:17:22.838Z,5.80
2017-11-12T15:19:49.952Z,5.70
2017-11-12T15:22:17.342Z,5.70
2017-11-12T15:24:44.155Z,5.70
2017-11-12T15:27:10.965Z,5.70
2017-11-12T15:29:37.947Z,5.60
2017-11-12T15:32:04.785Z,5.50
2017-11-12T15:34:31.756Z,5.40
2017-11-12T15:37:00.120Z,5.30
2017-11-12T15:39:26.690Z,5.20
2017-11-12T15:41:53.349Z,5.20
2017-11-12T15:44:20.227Z,5.00
2017-11-12T15:46:47.253Z,5.00
2017-11-12T15:49:14.377Z,5.10
2017-11-12T15:51:41.315Z,5.00
2017-11-12T15:54:08.437Z,5.00
2017-11-12T15:56:37.492Z,5.00
2017-11-12T15:59:04.888Z,5.00
2017-11-12T16:01:31.727Z,4.90
2017-11-12T16:03:58.494Z,4.90
2017-11-12T16:06:26.009Z,4.80
2017-11-12T16:08:52.783Z,4.80
2017-11-12T16:11:20.358Z,4.70
2017-11-12T16:13:46.990Z,4.60
2017-11-12T16:16:13.889Z,4.70
2017-11-12T16:18:40.772Z,4.60
2017-11-12T16:21:07.829Z,4.70
2017-11-12T16:23:35.522Z,4.70
2017-11-12T16:26:02.480Z,4.60
2017-11-12T16:28:29.315Z,4.70
2017-11-12T16:30:56.561Z,4.60
2017-11-12T16:33:23.208Z,4.50
2017-11-12T16:35:50.305Z,4.40
2017-11-12T16:38:17.124Z,4.50
2017-11-12T16:40:44.063Z,4.40
2017-11-12T16:43:11.059Z,4.40
2017-11-12T16:45:37.884Z,4.40
2017-11-12T16:48:05.056Z,4.30
2017-11-12T16:50:32.578Z,4.30
2017-11-12T16:53:00.094Z,4.30
2017-11-12T16:55:27.722Z,4.20
2017-11-12T16:57:55.336Z,4.20
2017-11-12T17:00:22.250Z,4.30
2017-11-12T17:02:51.017Z,4.40
2017-11-12T17:05:18.866Z,4.50
2017-11-12T17:07:46.088Z,4.60
2017-11-12T17:10:12.866Z,4.60
2017-11-12T17:12:40.116Z,4.60
2017-11-12T17:15:06.838Z,4.60
2017-11-12T17:17:34.072Z,4.50
2017-11-12T17:20:00.897Z,4.60
2017-11-12T17:22:27.646Z,4.60
2017-11-12T17:24:55.331Z,4.50
2017-11-12T17:27:21.990Z,4.50
2017-11-12T17:29:48.751Z,4.60
2017-11-12T17:32:15.479Z,4.60
2017-11-12T17:34:42.748Z,4.60
2017-11-12T17:37:09.539Z,4.60
2017-11-12T17:39:36.905Z,4.50
2017-11-12T17:42:03.879Z,4.40
2017-11-12T17:44:30.723Z,4.50
2017-11-12T17:46:57.384Z,4.50
2017-11-12T17:49:24.079Z,4.50
2017-11-12T17:51:51.167Z,4.60
2017-11-12T17:54:18.164Z,4.60
2017-11-12T17:56:44.737Z,4.60
2017-11-12T17:59:11.603Z,4.70
2017-11-12T18:01:38.593Z,4.70
2017-11-12T18:04:05.625Z,4.70
2017-11-12T18:06:32.306Z,4.70
2017-11-12T18:08:59.079Z,4.60
2017-11-12T18:11:25.812Z,4.70
2017-11-12T18:13:52.874Z,4.70
2017-11-12T18:16:19.638Z,4.80
2017-11-12T18:18:47.520Z,4.70
2017-11-12T18:21:15.173Z,4.70
2017-11-12T18:23:42.243Z,4.70
2017-11-12T18:26:09.239Z,4.60
2017-11-12T18:28:36.028Z,4.60
2017-11-12T18:31:03.704Z,4.60
2017-11-12T18:33:30.578Z,4.50
2017-11-12T18:35:58.378Z,4.50
2017-11-12T18:38:26.509Z,4.50
2017-11-12T18:40:53.386Z,4.50
2017-11-12T18:43:20.129Z,4.40
2017-11-12T18:45:47.127Z,4.40
2017-11-12T18:48:14.732Z,4.30
2017-11-12T18:50:52.297Z,4.30
2017-11-12T18:53:19.022Z,4.40
2017-11-12T18:55:45.713Z,4.40
2017-11-12T18:58:14.118Z,4.40
2017-11-12T19:00:48.976Z,4.40
2017-11-12T19:03:22.744Z,4.50
2017-11-12T19:05:57.671Z,4.50
2017-11-12T19:08:26.664Z,4.50
2017-11-12T19:16:37.188Z,4.50
2017-11-12T19:22:15.558Z,4.50
2017-11-12T19:24:44.709Z,4.50
2017-11-12T19:27:13.943Z,4.50
2017-11-12T19:29:41.149Z,4.50
2017-11-12T19:32:07.987Z,4.60
2017-11-12T19:34:36.920Z,4.60
2017-11-12T19:37:04.137Z,4.60
2017-11-12T19:39:31.005Z,4.60
2017-11-12T19:41:58.018Z,4.60
2017-11-12T19:44:26.286Z,4.60
2017-11-12T19:46:54.404Z,4.60
2017-11-12T19:49:22.394Z,4.60
2017-11-12T19:51:49.473Z,4.60
2017-11-12T19:54:16.318Z,4.50
2017-11-12T19:56:43.268Z,4.60
2017-11-12T19:59:10.375Z,4.50
2017-11-12T20:01:37.563Z,4.50
2017-11-12T20:04:06.598Z,4.50
2017-11-12T20:06:33.977Z,4.50
2017-11-12T20:09:01.693Z,4.60
2017-11-12T20:11:29.545Z,4.60
2017-11-12T20:13:57.027Z,4.60
2017-11-12T20:16:25.412Z,4.60
2017-11-12T20:19:02.079Z,4.60
2017-11-12T20:21:29.273Z,4.60
2017-11-12T20:23:56.395Z,4.60
2017-11-12T20:26:27.507Z,4.60
2017-11-12T20:28:55.089Z,4.60
2017-11-12T20:31:21.817Z,4.60
2017-11-12T20:33:54.839Z,4.60
2017-11-12T20:36:26.723Z,4.60
2017-11-12T20:38:54.410Z,4.70
2017-11-12T20:41:22.161Z,4.70
2017-11-12T20:43:49.050Z,4.60
2017-11-12T20:46:15.900Z,4.70
2017-11-12T20:48:43.664Z,4.60
2017-11-12T20:51:14.811Z,4.60
2017-11-12T20:53:42.872Z,4.60
2017-11-12T20:56:10.005Z,4.60
2017-11-12T20:58:36.880Z,4.60
2017-11-12T21:01:03.802Z,4.60
2017-11-12T21:06:06.156Z,4.60
2017-11-12T21:08:35.796Z,4.50
2017-11-12T21:11:03.717Z,4.50
2017-11-12T21:13:31.673Z,4.50
2017-11-12T21:15:58.593Z,4.50
2017-11-12T21:18:26.396Z,4.40
2017-11-12T21:21:04.270Z,4.40
2017-11-12T21:23:31.913Z,4.40
2017-11-12T21:25:59.134Z,4.40
2017-11-12T21:28:41.205Z,4.40
2017-11-12T21:31:26.741Z,4.30
2017-11-12T21:34:08.202Z,4.30
2017-11-12T21:36:35.198Z,4.30
2017-11-12T21:39:02.745Z,4.40
2017-11-12T21:41:30.395Z,4.40
2017-11-12T21:43:57.141Z,4.40
2017-11-12T21:46:25.691Z,4.50
2017-11-12T21:48:53.305Z,4.50
2017-11-12T21:51:21.001Z,4.50
2017-11-12T21:53:49.304Z,4.50
2017-11-12T21:56:16.143Z,4.50
2017-11-12T21:58:43.221Z,4.50
2017-11-12T22:01:10.191Z,4.50
2017-11-12T22:03:36.915Z,4.50
2017-11-12T22:06:04.542Z,4.40
2017-11-12T22:08:31.460Z,4.30
2017-11-12T22:10:58.264Z,4.40
2017-11-12T22:13:24.987Z,4.40
2017-11-12T22:15:52.923Z,4.40
2017-11-12T22:18:19.837Z,4.50
2017-11-12T22:20:46.713Z,4.60
2017-11-12T22:23:13.670Z,4.60
2017-11-12T22:25:43.086Z,4.60
2017-11-12T22:28:11.777Z,4.50
2017-11-12T22:30:38.472Z,4.60
2017-11-12T22:33:06.493Z,4.60
2017-11-12T22:35:34.402Z,4.60
2017-11-12T22:38:02.547Z,4.70
2017-11-12T22:40:30.721Z,4.70
2017-11-12T22:43:00.189Z,4.70
2017-11-12T22:45:28.997Z,4.70
2017-11-12T22:47:57.643Z,4.60
2017-11-12T22:50:25.002Z,4.60
2017-11-12T22:52:51.579Z,4.60
2017-11-12T22:55:18.417Z,4.50
2017-11-12T22:57:45.154Z,4.50
2017-11-12T23:00:14.027Z,4.50
2017-11-12T23:02:43.028Z,4.50
2017-11-12T23:05:12.351Z,4.50
2017-11-12T23:07:40.406Z,4.40
2017-11-12T23:10:12.705Z,4.40
2017-11-12T23:12:39.532Z,4.40
2017-11-12T23:15:06.340Z,4.30
2017-11-12T23:17:33.177Z,4.30
2017-11-12T23:20:00.008Z,4.20
2017-11-12T23:22:26.770Z,4.20
2017-11-12T23:24:53.501Z,4.20
2017-11-12T23:27:20.562Z,4.20
2017-11-12T23:29:47.420Z,4.10
2017-11-12T23:32:14.353Z,4.00
2017-11-12T23:34:41.262Z,3.90
2017-11-12T23:37:08.266Z,3.80
2017-11-12T23:39:36.732Z,3.80
2017-11-12T23:42:04.370Z,3.60
2017-11-12T23:44:31.153Z,3.50
2017-11-12T23:46:57.972Z,3.50
2017-11-12T23:49:24.801Z,3.50
2017-11-12T23:51:51.714Z,3.60
2017-11-12T23:54:19.257Z,3.70
2017-11-12T23:56:45.928Z,3.60
2017-11-12T23:59:12.508Z,3.60
